createdAt,value
2022-09-14T00:00:23.407Z,276.80
2022-09-14T00:02:51.281Z,275.17
2022-09-14T00:05:18.935Z,270.10
2022-09-14T00:07:46.481Z,274.33
2022-09-14T00:10:15.352Z,267.77
2022-09-14T00:12:42.910Z,277.00
2022-09-14T00:15:11.141Z,265.03
2022-09-14T00:17:38.679Z,278.40
2022-09-14T00:20:07.556Z,262.60
2022-09-14T00:22:35.100Z,273.90
2022-09-14T00:25:02.635Z,271.00
2022-09-14T00:27:31.517Z,272.83
2022-09-14T00:29:59.075Z,276.83
2022-09-14T00:32:26.575Z,264.77
2022-09-14T00:34:54.084Z,271.40
2022-09-14T00:37:21.595Z,261.90
2022-09-14T00:39:50.314Z,263.33
2022-09-14T00:42:19.563Z,286.23
2022-09-14T00:45:03.139Z,259.70
2022-09-14T00:47:32.611Z,281.87
2022-09-14T00:50:02.177Z,259.33
2022-09-14T00:52:32.741Z,268.27
2022-09-14T00:55:01.969Z,262.47
2022-09-14T00:57:32.290Z,267.93
2022-09-14T01:00:01.409Z,268.97
2022-09-14T01:02:29.656Z,276.23
2022-09-14T01:04:57.379Z,268.70
2022-09-14T01:07:38.382Z,268.33
2022-09-14T01:10:15.515Z,266.67
2022-09-14T01:12:50.900Z,266.40
2022-09-14T01:15:26.278Z,268.87
2022-09-14T01:17:58.342Z,273.77
2022-09-14T01:20:30.984Z,266.70
2022-09-14T01:23:03.816Z,269.20
2022-09-14T01:26:07.882Z,262.67
2022-09-14T01:28:41.915Z,279.13
2022-09-14T01:31:13.275Z,267.37
2022-09-14T01:33:43.487Z,268.07
2022-09-14T01:36:12.772Z,265.90
2022-09-14T01:38:43.295Z,268.57
2022-09-14T01:41:13.444Z,261.77
2022-09-14T01:43:45.227Z,265.07
2022-09-14T01:46:15.731Z,271.40
2022-09-14T01:48:47.168Z,263.60
2022-09-14T01:51:19.091Z,270.90
2022-09-14T01:53:49.138Z,267.63
2022-09-14T01:56:20.723Z,275.37
2022-09-14T01:58:52.682Z,261.70
2022-09-14T02:01:24.452Z,259.23
2022-09-14T02:03:55.481Z,265.47
2022-09-14T02:06:27.495Z,267.63
2022-09-14T02:08:55.379Z,262.00
2022-09-14T02:11:23.016Z,260.90
2022-09-14T02:13:51.922Z,261.93
2022-09-14T02:16:20.749Z,269.07
2022-09-14T02:18:48.340Z,260.27
2022-09-14T02:21:18.495Z,269.70
2022-09-14T02:23:46.048Z,264.47
2022-09-14T02:26:13.835Z,262.23
2022-09-14T02:28:41.378Z,270.70
2022-09-14T02:31:18.839Z,270.60
2022-09-14T02:33:52.080Z,262.90
2022-09-14T02:36:29.689Z,270.23
2022-09-14T02:39:02.453Z,272.57
2022-09-14T02:41:39.663Z,273.83
2022-09-14T02:44:13.593Z,261.07
2022-09-14T02:46:46.916Z,275.10
2022-09-14T02:49:19.568Z,270.00
2022-09-14T02:51:50.961Z,262.77
2022-09-14T02:54:20.423Z,269.23
2022-09-14T02:56:48.279Z,267.47
2022-09-14T02:59:15.855Z,266.03
2022-09-14T03:01:45.116Z,273.40
2022-09-14T03:04:12.679Z,269.27
2022-09-14T03:06:40.185Z,264.80
2022-09-14T03:09:07.700Z,263.07
2022-09-14T03:11:35.228Z,274.23
2022-09-14T03:14:02.715Z,268.03
2022-09-14T03:16:30.267Z,273.10
2022-09-14T03:18:59.123Z,270.50
2022-09-14T03:21:26.653Z,266.13
2022-09-14T03:23:55.074Z,270.40
2022-09-14T03:26:24.327Z,267.70
2022-09-14T03:28:52.425Z,269.87
2022-09-14T03:31:20.408Z,269.93
2022-09-14T03:33:48.648Z,266.63
2022-09-14T03:36:18.968Z,266.17
2022-09-14T03:38:47.718Z,259.33
2022-09-14T03:41:15.996Z,259.30
2022-09-14T03:43:44.119Z,266.33
2022-09-14T03:46:13.468Z,261.73
2022-09-14T03:48:41.567Z,264.33
2022-09-14T03:51:10.441Z,269.97
2022-09-14T03:53:39.656Z,272.60
2022-09-14T03:56:08.703Z,287.97
2022-09-14T03:58:36.216Z,278.43
2022-09-14T04:01:07.555Z,280.20
2022-09-14T04:03:35.348Z,275.93
2022-09-14T04:06:05.327Z,225.63
2022-09-14T04:08:33.376Z,247.27
2022-09-14T04:11:02.531Z,286.67
2022-09-14T04:13:30.011Z,249.13
2022-09-14T04:15:59.042Z,252.00
2022-09-14T04:18:27.239Z,249.90
2022-09-14T04:20:56.397Z,256.87
2022-09-14T04:23:23.991Z,252.07
2022-09-14T04:25:51.623Z,257.20
2022-09-14T04:28:21.105Z,255.20
2022-09-14T04:30:56.309Z,249.07
2022-09-14T04:33:24.053Z,254.47
2022-09-14T04:35:59.432Z,252.57
2022-09-14T04:38:27.128Z,251.30
2022-09-14T04:40:54.635Z,249.53
2022-09-14T04:43:23.551Z,255.33
2022-09-14T04:45:51.379Z,252.00
2022-09-14T04:48:19.216Z,252.47
2022-09-14T04:50:47.119Z,256.20
2022-09-14T04:53:14.607Z,258.67
2022-09-14T04:55:42.087Z,255.23
2022-09-14T04:58:09.639Z,250.90
2022-09-14T05:00:38.542Z,258.33
2022-09-14T05:03:06.583Z,257.27
2022-09-14T05:05:40.026Z,264.00
2022-09-14T05:08:10.572Z,255.27
2022-09-14T05:10:38.074Z,257.23
2022-09-14T05:13:05.563Z,270.93
2022-09-14T05:15:33.076Z,264.50
2022-09-14T05:18:02.801Z,253.63
2022-09-14T05:20:30.356Z,277.37
2022-09-14T05:22:57.848Z,257.87
2022-09-14T05:25:25.858Z,257.43
2022-09-14T05:27:53.384Z,256.53
2022-09-14T05:30:20.973Z,256.03
2022-09-14T05:32:48.480Z,256.17
2022-09-14T05:35:17.489Z,262.37
2022-09-14T05:37:44.992Z,265.40
2022-09-14T05:40:12.635Z,313.77
2022-09-14T05:42:40.218Z,203.20
2022-09-14T05:45:08.775Z,202.33
2022-09-14T05:47:39.143Z,222.40
2022-09-14T05:50:08.770Z,228.77
2022-09-14T05:52:37.632Z,235.87
2022-09-14T05:55:05.946Z,257.00
2022-09-14T05:57:33.739Z,239.87
2022-09-14T06:00:01.276Z,218.83
2022-09-14T06:02:28.833Z,230.17
2022-09-14T06:04:56.786Z,226.03
2022-09-14T06:07:24.400Z,226.87
2022-09-14T06:09:53.255Z,229.60
2022-09-14T06:12:20.841Z,230.93
2022-09-14T06:14:48.340Z,225.63
2022-09-14T06:17:15.842Z,230.20
2022-09-14T06:19:43.351Z,234.10
2022-09-14T06:22:10.907Z,231.30
2022-09-14T06:24:38.423Z,234.63
2022-09-14T06:27:08.890Z,236.13
2022-09-14T06:29:36.622Z,234.13
2022-09-14T06:32:04.382Z,234.63
2022-09-14T06:34:31.902Z,241.33
2022-09-14T06:36:59.410Z,229.73
2022-09-14T06:39:26.910Z,226.23
2022-09-14T06:41:54.428Z,229.83
2022-09-14T06:44:23.284Z,227.83
2022-09-14T06:46:50.776Z,226.80
2022-09-14T06:49:20.686Z,223.80
2022-09-14T06:51:48.391Z,249.40
2022-09-14T06:54:16.652Z,238.13
2022-09-14T06:56:45.335Z,257.60
2022-09-14T06:59:14.998Z,264.43
2022-09-14T07:01:45.260Z,250.07
2022-09-14T07:04:14.244Z,249.40
2022-09-14T07:06:43.858Z,249.80
2022-09-14T07:09:11.871Z,254.77
2022-09-14T07:11:40.007Z,249.73
2022-09-14T07:14:08.161Z,226.37
2022-09-14T07:16:36.881Z,232.03
2022-09-14T07:19:07.156Z,234.63
2022-09-14T07:21:35.414Z,235.40
2022-09-14T07:24:03.434Z,248.23
2022-09-14T07:26:32.322Z,249.43
2022-09-14T07:29:01.924Z,236.87
2022-09-14T07:31:32.255Z,245.60
2022-09-14T07:34:03.277Z,236.70
2022-09-14T07:36:35.121Z,250.20
2022-09-14T07:39:03.523Z,244.43
2022-09-14T07:41:32.145Z,246.67
2022-09-14T07:44:00.940Z,246.37
2022-09-14T07:46:29.061Z,250.83
2022-09-14T07:48:57.976Z,245.30
2022-09-14T07:51:26.075Z,236.73
2022-09-14T07:53:55.353Z,239.83
2022-09-14T07:56:22.990Z,247.13
2022-09-14T07:58:55.428Z,246.73
2022-09-14T08:01:24.984Z,262.03
2022-09-14T08:03:52.555Z,245.70
2022-09-14T08:06:21.408Z,250.13
2022-09-14T08:08:50.810Z,250.63
2022-09-14T08:11:21.770Z,257.33
2022-09-14T08:13:52.012Z,251.93
2022-09-14T08:16:20.328Z,260.63
2022-09-14T08:18:48.575Z,257.63
2022-09-14T08:21:17.650Z,262.23
2022-09-14T08:23:45.731Z,263.07
2022-09-14T08:26:16.212Z,259.23
2022-09-14T08:28:45.658Z,264.83
2022-09-14T08:31:15.187Z,265.47
2022-09-14T08:33:45.329Z,266.17
2022-09-14T08:36:15.837Z,263.83
2022-09-14T08:38:43.449Z,274.63
2022-09-14T08:41:18.080Z,270.60
2022-09-14T08:43:47.181Z,283.67
2022-09-14T08:46:24.015Z,276.23
2022-09-14T08:48:51.568Z,276.33
2022-09-14T08:51:19.067Z,277.93
2022-09-14T08:53:46.651Z,288.00
2022-09-14T08:56:17.137Z,274.47
2022-09-14T08:58:56.061Z,285.90
2022-09-14T09:01:35.915Z,278.60
2022-09-14T09:04:17.374Z,281.13
2022-09-14T09:06:48.946Z,279.50
2022-09-14T09:09:22.767Z,290.00
2022-09-14T09:11:52.204Z,291.37
2022-09-14T09:14:25.084Z,284.97
2022-09-14T09:16:55.550Z,281.47
2022-09-14T09:19:28.785Z,281.83
2022-09-14T09:21:56.783Z,279.90
2022-09-14T09:24:28.440Z,285.73
2022-09-14T09:26:55.999Z,280.77
2022-09-14T09:29:24.939Z,284.20
2022-09-14T09:31:54.532Z,285.10
2022-09-14T09:34:26.947Z,289.77
2022-09-14T09:36:55.821Z,281.60
2022-09-14T09:39:25.823Z,287.97
2022-09-14T09:41:57.597Z,285.33
2022-09-14T09:44:26.475Z,286.90
2022-09-14T09:46:56.313Z,288.33
2022-09-14T09:49:26.806Z,287.20
2022-09-14T09:51:54.596Z,285.40
2022-09-14T09:54:30.097Z,295.27
2022-09-14T09:56:59.635Z,289.83
2022-09-14T09:59:35.165Z,291.90
2022-09-14T10:02:22.811Z,291.27
2022-09-14T10:04:59.370Z,290.97
2022-09-14T10:07:28.144Z,281.63
2022-09-14T10:10:00.933Z,293.90
2022-09-14T10:12:29.318Z,293.40
2022-09-14T10:15:16.535Z,298.57
2022-09-14T10:17:58.112Z,297.00
2022-09-14T10:20:26.676Z,302.67
2022-09-14T10:22:54.282Z,294.47
2022-09-14T10:25:24.067Z,299.83
2022-09-14T10:27:59.331Z,289.10
2022-09-14T10:30:29.476Z,300.70
2022-09-14T10:33:00.239Z,291.13
2022-09-14T10:35:34.278Z,307.97
2022-09-14T10:38:12.094Z,285.97
2022-09-14T10:40:43.714Z,319.73
2022-09-14T10:43:15.391Z,269.73
2022-09-14T10:45:49.624Z,277.47
2022-09-14T10:48:36.546Z,271.03
2022-09-14T10:51:18.718Z,286.30
2022-09-14T10:53:51.513Z,279.57
2022-09-14T10:56:20.995Z,272.13
2022-09-14T10:59:13.466Z,271.63
2022-09-14T11:01:55.334Z,292.60
2022-09-14T11:04:46.820Z,291.10
2022-09-14T11:07:22.447Z,277.30
2022-09-14T11:09:55.075Z,189.00
2022-09-14T11:12:25.797Z,243.83
2022-09-14T11:15:01.926Z,189.47
2022-09-14T11:17:50.800Z,261.57
2022-09-14T11:20:26.503Z,298.20
2022-09-14T11:23:00.654Z,277.47
2022-09-14T11:25:33.367Z,292.57
2022-09-14T11:28:04.800Z,293.63
2022-09-14T11:30:35.427Z,290.60
2022-09-14T11:33:08.868Z,291.23
2022-09-14T11:35:39.911Z,300.90
2022-09-14T11:38:12.335Z,225.57
2022-09-14T11:40:44.445Z,183.37
2022-09-14T11:43:15.039Z,251.13
2022-09-14T11:45:46.075Z,241.90
2022-09-14T11:48:41.940Z,172.30
2022-09-14T11:51:16.234Z,238.07
2022-09-14T11:53:44.707Z,189.03
2022-09-14T11:56:24.432Z,282.13
2022-09-14T11:58:52.031Z,198.43
2022-09-14T12:01:29.483Z,211.00
2022-09-14T12:04:14.146Z,263.10
2022-09-14T12:06:54.754Z,241.60
2022-09-14T12:09:46.260Z,175.57
2022-09-14T12:12:37.867Z,288.73
2022-09-14T12:15:15.434Z,154.33
2022-09-14T12:17:44.476Z,275.47
2022-09-14T12:20:31.225Z,165.97
2022-09-14T12:23:07.550Z,250.00
2022-09-14T12:25:35.776Z,324.93
2022-09-14T12:28:03.755Z,311.13
2022-09-14T12:31:10.668Z,285.70
2022-09-14T12:33:46.079Z,265.33
2022-09-14T12:36:53.493Z,134.13
2022-09-14T12:39:23.282Z,174.10
2022-09-14T12:42:02.828Z,245.20
2022-09-14T12:44:36.138Z,173.37
2022-09-14T12:47:41.173Z,251.03
2022-09-14T12:50:14.555Z,242.43
2022-09-14T12:53:06.808Z,238.03
2022-09-14T12:55:46.056Z,230.43
2022-09-14T12:58:26.366Z,266.37
2022-09-14T13:01:01.844Z,225.67
2022-09-14T13:03:53.226Z,270.70
2022-09-14T13:06:21.809Z,282.17
2022-09-14T13:08:55.200Z,276.27
2022-09-14T13:11:26.516Z,162.17
2022-09-14T13:13:54.164Z,148.00
2022-09-14T13:16:29.471Z,145.37
2022-09-14T13:19:02.623Z,150.90
2022-09-14T13:21:30.179Z,173.00
2022-09-14T13:23:59.060Z,174.53
2022-09-14T13:26:27.907Z,210.87
2022-09-14T13:28:56.785Z,230.20
2022-09-14T13:31:29.464Z,139.50
2022-09-14T13:33:57.245Z,178.07
2022-09-14T13:36:26.505Z,188.57
2022-09-14T13:38:54.447Z,303.90
2022-09-14T13:41:24.354Z,278.83
2022-09-14T13:43:55.331Z,315.40
2022-09-14T13:46:23.714Z,281.43
2022-09-14T13:48:52.110Z,237.30
2022-09-14T13:51:25.129Z,285.07
2022-09-14T13:53:54.402Z,195.37
2022-09-14T13:56:26.651Z,250.50
2022-09-14T13:59:20.628Z,282.10
2022-09-14T14:01:57.562Z,219.43
2022-09-14T14:04:33.552Z,259.90
2022-09-14T14:07:14.696Z,277.97
2022-09-14T14:09:45.478Z,141.43
2022-09-14T14:12:25.819Z,268.33
2022-09-14T14:14:55.080Z,308.53
2022-09-14T14:17:34.228Z,305.57
2022-09-14T14:20:35.387Z,154.37
2022-09-14T14:23:19.949Z,262.80
2022-09-14T14:25:49.411Z,305.17
2022-09-14T14:28:23.238Z,363.13
2022-09-14T14:30:50.950Z,158.83
2022-09-14T14:33:20.091Z,169.10
2022-09-14T14:35:48.283Z,287.63
2022-09-14T14:38:16.630Z,142.80
2022-09-14T14:40:45.603Z,256.20
2022-09-14T14:43:19.511Z,135.90
2022-09-14T14:45:47.193Z,142.93
2022-09-14T14:48:14.974Z,149.07
2022-09-14T14:50:42.527Z,312.67
2022-09-14T14:53:10.053Z,168.03
2022-09-14T14:55:37.590Z,197.83
2022-09-14T14:58:09.739Z,246.73
2022-09-14T15:00:39.308Z,251.67
2022-09-14T15:03:06.971Z,295.30
2022-09-14T15:05:34.642Z,278.97
2022-09-14T15:08:02.244Z,157.17
2022-09-14T15:10:30.624Z,329.63
2022-09-14T15:12:58.263Z,195.43
2022-09-14T15:15:27.118Z,162.87
2022-09-14T15:17:55.994Z,161.00
2022-09-14T15:20:24.159Z,181.57
2022-09-14T15:22:51.943Z,141.20
2022-09-14T15:25:21.278Z,138.30
2022-09-14T15:27:49.188Z,164.43
2022-09-14T15:30:17.074Z,180.07
2022-09-14T15:32:44.598Z,283.10
2022-09-14T15:35:15.340Z,259.90
2022-09-14T15:37:43.250Z,256.57
2022-09-14T15:40:11.722Z,306.27
2022-09-14T15:42:39.287Z,189.10
2022-09-14T15:45:09.033Z,172.37
2022-09-14T15:47:36.875Z,295.97
2022-09-14T15:50:05.303Z,265.20
2022-09-14T15:52:35.904Z,234.93
2022-09-14T15:55:03.592Z,246.47
2022-09-14T15:57:31.092Z,236.83
2022-09-14T15:59:58.703Z,206.27
2022-09-14T16:02:26.400Z,173.63
2022-09-14T16:04:53.975Z,253.37
2022-09-14T16:07:21.492Z,163.67
2022-09-14T16:09:50.331Z,152.40
2022-09-14T16:12:17.806Z,178.67
2022-09-14T16:14:45.315Z,207.63
2022-09-14T16:17:12.846Z,282.70
2022-09-14T16:19:40.347Z,298.53
2022-09-14T16:22:08.095Z,189.30
2022-09-14T16:24:35.731Z,194.33
2022-09-14T16:27:04.700Z,189.23
2022-09-14T16:29:32.186Z,170.07
2022-09-14T16:31:59.742Z,173.17
2022-09-14T16:34:28.844Z,206.90
2022-09-14T16:36:58.459Z,203.83
2022-09-14T16:39:28.436Z,235.10
2022-09-14T16:41:56.642Z,197.23
2022-09-14T16:44:27.716Z,196.03
2022-09-14T16:46:57.505Z,165.87
2022-09-14T16:49:27.935Z,187.27
2022-09-14T16:51:56.180Z,186.70
2022-09-14T16:54:25.351Z,206.93
2022-09-14T16:56:55.967Z,165.20
2022-09-14T16:59:25.444Z,205.40
2022-09-14T17:01:54.998Z,267.23
2022-09-14T17:04:23.828Z,216.23
2022-09-14T17:06:51.998Z,177.57
2022-09-14T17:09:21.312Z,197.97
2022-09-14T17:11:49.455Z,352.63
2022-09-14T17:14:18.857Z,359.67
2022-09-14T17:16:48.368Z,269.50
2022-09-14T17:19:16.468Z,238.37
2022-09-14T17:21:45.163Z,303.77
2022-09-14T17:24:13.904Z,298.33
2022-09-14T17:26:41.990Z,292.47
2022-09-14T17:29:09.978Z,283.53
2022-09-14T17:31:40.611Z,323.20
2022-09-14T17:34:11.345Z,306.63
2022-09-14T17:36:39.301Z,299.53
2022-09-14T17:39:11.579Z,304.37
2022-09-14T17:41:40.396Z,288.50
2022-09-14T17:44:08.983Z,293.43
2022-09-14T17:46:41.462Z,299.00
2022-09-14T17:49:15.961Z,300.07
2022-09-14T17:51:45.082Z,302.70
2022-09-14T17:54:13.278Z,299.27
2022-09-14T17:56:41.288Z,310.20
2022-09-14T17:59:11.713Z,304.10
2022-09-14T18:01:39.374Z,303.60
2022-09-14T18:04:08.764Z,299.87
2022-09-14T18:06:39.232Z,303.07
2022-09-14T18:09:08.809Z,297.60
2022-09-14T18:11:36.679Z,318.40
2022-09-14T18:14:05.274Z,311.67
2022-09-14T18:16:33.524Z,301.67
2022-09-14T18:19:01.464Z,322.83
2022-09-14T18:21:29.080Z,304.00
2022-09-14T18:23:58.255Z,313.63
2022-09-14T18:26:26.164Z,336.40
2022-09-14T18:28:55.933Z,324.43
2022-09-14T18:31:23.897Z,328.57
2022-09-14T18:33:52.763Z,308.50
2022-09-14T18:36:20.920Z,320.37
2022-09-14T18:38:49.331Z,322.27
2022-09-14T18:41:18.577Z,335.13
2022-09-14T18:43:47.546Z,303.57
2022-09-14T18:46:16.175Z,331.87
2022-09-14T18:48:44.614Z,317.30
2022-09-14T18:51:13.015Z,321.30
2022-09-14T18:53:40.897Z,330.13
2022-09-14T18:56:10.003Z,323.23
2022-09-14T18:58:44.447Z,310.40
2022-09-14T19:01:12.819Z,334.67
2022-09-14T19:03:41.624Z,416.53
2022-09-14T19:06:10.901Z,371.50
2022-09-14T19:08:38.785Z,332.90
2022-09-14T19:11:07.164Z,350.13
2022-09-14T19:13:34.899Z,330.47
2022-09-14T19:16:07.819Z,320.00
2022-09-14T19:18:35.590Z,328.43
2022-09-14T19:21:07.411Z,338.63
2022-09-14T19:23:35.104Z,308.93
2022-09-14T19:26:04.692Z,407.40
2022-09-14T19:28:33.332Z,327.83
2022-09-14T19:31:01.020Z,326.47
2022-09-14T19:33:31.510Z,318.37
2022-09-14T19:36:03.374Z,311.50
2022-09-14T19:38:30.931Z,334.77
2022-09-14T19:40:58.440Z,325.50
2022-09-14T19:43:25.967Z,325.20
2022-09-14T19:45:53.538Z,313.00
2022-09-14T19:48:21.079Z,324.50
2022-09-14T19:50:49.944Z,308.70
2022-09-14T19:53:17.426Z,342.17
2022-09-14T19:55:44.971Z,330.53
2022-09-14T19:58:12.625Z,331.93
2022-09-14T20:00:40.147Z,337.17
2022-09-14T20:03:08.212Z,327.07
2022-09-14T20:05:35.845Z,328.50
2022-09-14T20:08:04.835Z,346.67
2022-09-14T20:10:32.352Z,346.20
2022-09-14T20:12:59.829Z,304.87
2022-09-14T20:15:29.448Z,301.47
2022-09-14T20:17:57.120Z,294.33
2022-09-14T20:20:24.929Z,298.33
2022-09-14T20:22:52.438Z,317.70
2022-09-14T20:25:21.364Z,309.23
2022-09-14T20:27:48.934Z,312.93
2022-09-14T20:30:16.450Z,314.00
2022-09-14T20:32:43.978Z,313.80
2022-09-14T20:35:11.471Z,308.13
2022-09-14T20:37:38.971Z,315.60
2022-09-14T20:40:09.609Z,298.53
2022-09-14T20:42:38.628Z,350.37
2022-09-14T20:45:06.973Z,302.33
2022-09-14T20:47:34.486Z,314.53
2022-09-14T20:50:01.983Z,313.10
2022-09-14T20:52:29.494Z,316.30
2022-09-14T20:54:56.994Z,305.70
2022-09-14T20:57:24.495Z,302.77
2022-09-14T20:59:53.348Z,303.57
2022-09-14T21:02:20.965Z,295.93
2022-09-14T21:04:48.552Z,291.00
2022-09-14T21:07:16.381Z,305.37
2022-09-14T21:09:43.989Z,298.23
2022-09-14T21:12:13.988Z,300.57
2022-09-14T21:14:42.364Z,303.57
2022-09-14T21:17:11.380Z,293.30
2022-09-14T21:19:39.064Z,298.53
2022-09-14T21:22:07.714Z,298.83
2022-09-14T21:24:36.134Z,296.67
2022-09-14T21:27:04.681Z,300.30
2022-09-14T21:29:32.384Z,299.40
2022-09-14T21:31:59.932Z,302.63
2022-09-14T21:34:29.005Z,312.67
2022-09-14T21:36:56.532Z,303.50
2022-09-14T21:39:26.964Z,306.20
2022-09-14T21:41:59.161Z,305.20
2022-09-14T21:44:30.856Z,298.33
2022-09-14T21:46:58.527Z,304.03
2022-09-14T21:49:26.079Z,298.63
2022-09-14T21:51:54.963Z,302.40
2022-09-14T21:54:22.484Z,302.60
2022-09-14T21:56:50.032Z,302.87
2022-09-14T21:59:19.733Z,297.37
2022-09-14T22:01:47.884Z,301.33
2022-09-14T22:04:16.598Z,328.10
2022-09-14T22:06:45.443Z,296.40
2022-09-14T22:09:15.900Z,296.67
2022-09-14T22:11:43.879Z,293.97
2022-09-14T22:14:13.043Z,294.73
2022-09-14T22:16:41.304Z,305.97
2022-09-14T22:19:13.634Z,304.47
2022-09-14T22:21:41.323Z,289.67
2022-09-14T22:24:12.015Z,297.07
2022-09-14T22:26:41.243Z,290.97
2022-09-14T22:29:09.716Z,290.37
2022-09-14T22:31:39.334Z,293.13
2022-09-14T22:34:06.875Z,286.80
2022-09-14T22:36:34.400Z,287.57
2022-09-14T22:39:01.959Z,292.40
2022-09-14T22:41:29.787Z,298.60
2022-09-14T22:43:58.714Z,309.43
2022-09-14T22:46:26.621Z,220.63
2022-09-14T22:48:54.641Z,252.57
2022-09-14T22:51:23.981Z,256.90
2022-09-14T22:53:52.587Z,222.23
2022-09-14T22:56:22.232Z,243.93
2022-09-14T22:58:49.969Z,259.43
2022-09-14T23:01:20.481Z,221.00
2022-09-14T23:03:48.023Z,261.43
2022-09-14T23:06:15.681Z,259.03
2022-09-14T23:08:43.203Z,254.40
2022-09-14T23:11:12.450Z,278.70
2022-09-14T23:13:41.220Z,258.17
2022-09-14T23:16:13.180Z,266.60
2022-09-14T23:18:42.285Z,265.93
2022-09-14T23:21:10.250Z,252.17
2022-09-14T23:23:39.048Z,253.47
2022-09-14T23:26:08.715Z,245.33
2022-09-14T23:28:36.886Z,243.93
2022-09-14T23:31:05.089Z,227.87
2022-09-14T23:33:32.653Z,245.97
2022-09-14T23:36:01.509Z,234.93
2022-09-14T23:38:29.181Z,238.13
2022-09-14T23:40:58.389Z,256.63
2022-09-14T23:43:25.888Z,239.67
2022-09-14T23:45:53.761Z,229.87
2022-09-14T23:48:21.254Z,230.80
2022-09-14T23:50:57.475Z,237.23
2022-09-14T23:53:26.849Z,232.57
2022-09-14T23:55:54.637Z,240.07
2022-09-14T23:58:22.165Z,241.47
